BAW4648 KLAX-KSAN
Flight info
| Callsign | BAW4648 |
|---|---|
| Flight time | N/A |
| Altitude | 7500 |
| Route | STRAIGHT OUT DEPARTURE |
| Aircraft | A388/J-S/L |
Departure
| Time | 2026-04-26 19:24 |
|---|---|
| Airport | Los Angeles International Airport (KLAX) |
Arrival
| Time | N/A |
|---|---|
| Airport | San Diego International Airport (KSAN) |
| Time | Latitude | Longitude | Altitude | Speed | Heading |
|---|---|---|---|---|---|
| 2026-04-26 19:09 | 33.94024 | -118.40931 | 132 ft | 0 kts | 264° |
| 2026-04-26 19:14 | 33.94025 | -118.40914 | 128 ft | 2 kts | 264° |
| 2026-04-26 19:14 | 33.94026 | -118.40900 | 127 ft | 2 kts | 264° |
| 2026-04-26 19:15 | 33.94024 | -118.40868 | 132 ft | 3 kts | 240° |
| 2026-04-26 19:15 | 33.94031 | -118.40840 | 125 ft | 3 kts | 200° |
| 2026-04-26 19:15 | 33.94044 | -118.40827 | 127 ft | 0 kts | 172° |
| 2026-04-26 19:17 | 33.94042 | -118.40826 | 132 ft | 2 kts | 172° |
| 2026-04-26 19:17 | 33.94013 | -118.40822 | 131 ft | 6 kts | 172° |
| 2026-04-26 19:17 | 33.93953 | -118.40813 | 130 ft | 10 kts | 174° |
| 2026-04-26 19:17 | 33.93887 | -118.40833 | 128 ft | 9 kts | 209° |
| 2026-04-26 19:18 | 33.93867 | -118.40887 | 128 ft | 4 kts | 252° |
| 2026-04-26 19:18 | 33.93866 | -118.40927 | 124 ft | 7 kts | 262° |
| 2026-04-26 19:18 | 33.93859 | -118.41000 | 132 ft | 11 kts | 263° |
| 2026-04-26 19:18 | 33.93851 | -118.41105 | 132 ft | 13 kts | 271° |
| 2026-04-26 19:19 | 33.93898 | -118.41171 | 126 ft | 9 kts | 324° |
| 2026-04-26 19:19 | 33.93935 | -118.41172 | 128 ft | 6 kts | 353° |
| 2026-04-26 19:19 | 33.93994 | -118.41181 | 129 ft | 11 kts | 353° |
| 2026-04-26 19:19 | 33.94088 | -118.41195 | 129 ft | 16 kts | 353° |
| 2026-04-26 19:20 | 33.94216 | -118.41214 | 130 ft | 21 kts | 353° |
| 2026-04-26 19:20 | 33.94320 | -118.41228 | 128 ft | 24 kts | 354° |
| 2026-04-26 19:20 | 33.94563 | -118.41266 | 129 ft | 29 kts | 353° |
| 2026-04-26 19:20 | 33.94732 | -118.41290 | 127 ft | 17 kts | 354° |
| 2026-04-26 19:21 | 33.94805 | -118.41207 | 127 ft | 14 kts | 69° |
| 2026-04-26 19:21 | 33.94811 | -118.41119 | 132 ft | 12 kts | 83° |
| 2026-04-26 19:21 | 33.94824 | -118.40997 | 128 ft | 17 kts | 83° |
| 2026-04-26 19:21 | 33.94841 | -118.40833 | 132 ft | 22 kts | 83° |
| 2026-04-26 19:22 | 33.94861 | -118.40629 | 123 ft | 27 kts | 83° |
| 2026-04-26 19:22 | 33.94887 | -118.40388 | 130 ft | 30 kts | 82° |
| 2026-04-26 19:22 | 33.94910 | -118.40175 | 132 ft | 28 kts | 83° |
| 2026-04-26 19:22 | 33.94933 | -118.39972 | 132 ft | 21 kts | 77° |
| 2026-04-26 19:23 | 33.95029 | -118.39935 | 124 ft | 13 kts | 331° |
| 2026-04-26 19:23 | 33.95036 | -118.40003 | 128 ft | 5 kts | 264° |
| 2026-04-26 19:23 | 33.95005 | -118.40321 | 128 ft | 82 kts | 262° |
| 2026-04-26 19:23 | 33.94896 | -118.41351 | 132 ft | 162 kts | 263° |
| 2026-04-26 19:24 | 33.94749 | -118.42922 | 485 ft | 209 kts | 262° |
| 2026-04-26 19:24 | 33.94568 | -118.44908 | 894 ft | 270 kts | 262° |
| 2026-04-26 19:24 | 33.94049 | -118.49860 | 3216 ft | 278 kts | 263° |
| 2026-04-26 19:25 | 33.93800 | -118.51952 | 3959 ft | 238 kts | 263° |
| 2026-04-26 19:25 | 33.93644 | -118.53275 | 4164 ft | 244 kts | 263° |
| 2026-04-26 19:25 | 33.93329 | -118.55991 | 4652 ft | 248 kts | 263° |
| 2026-04-26 19:25 | 33.93086 | -118.58079 | 4866 ft | 254 kts | 263° |
| 2026-04-26 19:26 | 33.92848 | -118.60167 | 4963 ft | 249 kts | 263° |
| 2026-04-26 19:26 | 33.92607 | -118.62227 | 5176 ft | 250 kts | 263° |
| 2026-04-26 19:26 | 33.92369 | -118.64283 | 5782 ft | 247 kts | 263° |
| 2026-04-26 19:26 | 33.92133 | -118.66341 | 6553 ft | 250 kts | 262° |
| 2026-04-26 19:27 | 33.91495 | -118.68285 | 7433 ft | 257 kts | 232° |
| 2026-04-26 19:27 | 33.89973 | -118.69417 | 8274 ft | 272 kts | 199° |
| 2026-04-26 19:27 | 33.88085 | -118.69860 | 9105 ft | 280 kts | 194° |
| 2026-04-26 19:27 | 33.86134 | -118.70218 | 9929 ft | 286 kts | 194° |
| 2026-04-26 19:28 | 33.84127 | -118.70546 | 10510 ft | 298 kts | 193° |
| 2026-04-26 19:28 | 33.82013 | -118.70870 | 11008 ft | 312 kts | 192° |
| 2026-04-26 19:28 | 33.79809 | -118.71199 | 11522 ft | 325 kts | 192° |
| 2026-04-26 19:28 | 33.77514 | -118.71542 | 12053 ft | 337 kts | 192° |
| 2026-04-26 19:29 | 33.75157 | -118.71763 | 12510 ft | 345 kts | 180° |
| 2026-04-26 19:29 | 33.72895 | -118.70901 | 12773 ft | 338 kts | 151° |
| 2026-04-26 19:29 | 33.71293 | -118.68951 | 12892 ft | 327 kts | 121° |
| 2026-04-26 19:29 | 33.70494 | -118.66388 | 13001 ft | 332 kts | 105° |
| 2026-04-26 19:30 | 33.69912 | -118.63664 | 13033 ft | 339 kts | 103° |
| 2026-04-26 19:30 | 33.69380 | -118.60951 | 13036 ft | 336 kts | 103° |
| 2026-04-26 19:30 | 33.68873 | -118.58218 | 13036 ft | 335 kts | 102° |
| 2026-04-26 19:30 | 33.68547 | -118.56404 | 13037 ft | 336 kts | 102° |
| 2026-04-26 19:31 | 33.67897 | -118.52727 | 13035 ft | 335 kts | 102° |
| 2026-04-26 19:31 | 33.67418 | -118.49993 | 13035 ft | 335 kts | 102° |
| 2026-04-26 19:31 | 33.66940 | -118.47251 | 13036 ft | 336 kts | 102° |
| 2026-04-26 19:31 | 33.66461 | -118.44502 | 13037 ft | 336 kts | 102° |
| 2026-04-26 19:32 | 33.65986 | -118.41760 | 13035 ft | 335 kts | 102° |
| 2026-04-26 19:32 | 33.65512 | -118.39016 | 13036 ft | 335 kts | 102° |
| 2026-04-26 19:32 | 33.65046 | -118.36315 | 13044 ft | 336 kts | 101° |
| 2026-04-26 19:32 | 33.64565 | -118.33549 | 13042 ft | 339 kts | 102° |
| 2026-04-26 19:33 | 33.64082 | -118.30784 | 13032 ft | 337 kts | 102° |
| 2026-04-26 19:33 | 33.63604 | -118.28034 | 13032 ft | 337 kts | 102° |
| 2026-04-26 19:33 | 33.63126 | -118.25272 | 13033 ft | 339 kts | 102° |
| 2026-04-26 19:33 | 33.62648 | -118.22512 | 13029 ft | 337 kts | 102° |
| 2026-04-26 19:34 | 33.62173 | -118.19760 | 13032 ft | 336 kts | 102° |
| 2026-04-26 19:34 | 33.61675 | -118.17014 | 13026 ft | 337 kts | 106° |
| 2026-04-26 19:34 | 33.60714 | -118.14456 | 13031 ft | 335 kts | 120° |
| 2026-04-26 19:34 | 33.59345 | -118.12164 | 13036 ft | 348 kts | 138° |
| 2026-04-26 19:35 | 33.57536 | -118.10079 | 13073 ft | 374 kts | 140° |
| 2026-04-26 19:35 | 33.55585 | -118.07856 | 13084 ft | 400 kts | 138° |
| 2026-04-26 19:35 | 33.53584 | -118.05433 | 13091 ft | 424 kts | 137° |
| 2026-04-26 19:35 | 33.51471 | -118.02840 | 13088 ft | 445 kts | 137° |
| 2026-04-26 19:36 | 33.49292 | -118.00162 | 13060 ft | 450 kts | 136° |
| 2026-04-26 19:36 | 33.47818 | -117.98349 | 13047 ft | 449 kts | 137° |
| 2026-04-26 19:36 | 33.44938 | -117.94792 | 13037 ft | 450 kts | 136° |
| 2026-04-26 19:36 | 33.42753 | -117.92095 | 13034 ft | 451 kts | 136° |
| 2026-04-26 19:37 | 33.40569 | -117.89399 | 13021 ft | 450 kts | 136° |
| 2026-04-26 19:37 | 33.38393 | -117.86711 | 13025 ft | 448 kts | 136° |
| 2026-04-26 19:37 | 33.36253 | -117.83998 | 13024 ft | 450 kts | 133° |
| 2026-04-26 19:37 | 33.34344 | -117.81022 | 13029 ft | 452 kts | 127° |
| 2026-04-26 19:38 | 33.32524 | -117.77947 | 13033 ft | 452 kts | 127° |
| 2026-04-26 19:38 | 33.30713 | -117.74874 | 13034 ft | 451 kts | 127° |
| 2026-04-26 19:38 | 33.28917 | -117.71811 | 13031 ft | 442 kts | 127° |
| 2026-04-26 19:38 | 33.27221 | -117.68887 | 13020 ft | 415 kts | 126° |
| 2026-04-26 19:39 | 33.25632 | -117.66134 | 13014 ft | 393 kts | 126° |
| 2026-04-26 19:39 | 33.24098 | -117.63461 | 12799 ft | 391 kts | 126° |
| 2026-04-26 19:39 | 33.22558 | -117.60780 | 12497 ft | 390 kts | 126° |
| 2026-04-26 19:39 | 33.21044 | -117.58145 | 12091 ft | 388 kts | 126° |
| 2026-04-26 19:40 | 33.19522 | -117.55502 | 11626 ft | 385 kts | 126° |
| 2026-04-26 19:40 | 33.18005 | -117.52871 | 11057 ft | 381 kts | 126° |
| 2026-04-26 19:40 | 33.16505 | -117.50277 | 10591 ft | 379 kts | 126° |
| 2026-04-26 19:40 | 33.15016 | -117.47699 | 10353 ft | 373 kts | 126° |
| 2026-04-26 19:41 | 33.13585 | -117.45204 | 10334 ft | 357 kts | 126° |
| 2026-04-26 19:41 | 33.12220 | -117.42807 | 10170 ft | 343 kts | 126° |
| 2026-04-26 19:41 | 33.10904 | -117.40489 | 9839 ft | 333 kts | 126° |
| 2026-04-26 19:41 | 33.10482 | -117.39750 | 9673 ft | 332 kts | 127° |
| 2026-04-26 19:42 | 33.08079 | -117.36236 | 8863 ft | 321 kts | 142° |
| 2026-04-26 19:42 | 33.06322 | -117.34635 | 8448 ft | 316 kts | 152° |
| 2026-04-26 19:42 | 33.04414 | -117.33425 | 8224 ft | 312 kts | 159° |
| 2026-04-26 19:42 | 33.02410 | -117.32471 | 8129 ft | 307 kts | 165° |
| 2026-04-26 19:43 | 33.00380 | -117.31680 | 8091 ft | 307 kts | 167° |
| 2026-04-26 19:43 | 32.98378 | -117.30956 | 8056 ft | 292 kts | 167° |
| 2026-04-26 19:43 | 32.96457 | -117.30266 | 8048 ft | 288 kts | 167° |
| 2026-04-26 19:43 | 32.94528 | -117.29539 | 8056 ft | 292 kts | 166° |
| 2026-04-26 19:44 | 32.92641 | -117.28771 | 8047 ft | 278 kts | 165° |
| 2026-04-26 19:44 | 32.90882 | -117.27999 | 8040 ft | 262 kts | 163° |
| 2026-04-26 19:44 | 32.89216 | -117.27191 | 8046 ft | 257 kts | 162° |
| 2026-04-26 19:44 | 32.87566 | -117.26431 | 8060 ft | 257 kts | 165° |
| 2026-04-26 19:45 | 32.85862 | -117.25737 | 8070 ft | 260 kts | 165° |
| 2026-04-26 19:45 | 32.84161 | -117.25020 | 8075 ft | 259 kts | 165° |
| 2026-04-26 19:45 | 32.82470 | -117.24283 | 8074 ft | 258 kts | 164° |
| 2026-04-26 19:45 | 32.80779 | -117.23540 | 8099 ft | 259 kts | 164° |
| 2026-04-26 19:46 | 32.79102 | -117.22797 | 8071 ft | 251 kts | 164° |
| 2026-04-26 19:46 | 32.77651 | -117.21694 | 7928 ft | 253 kts | 132° |
| 2026-04-26 19:46 | 32.76637 | -117.20029 | 8017 ft | 249 kts | 126° |
| 2026-04-26 19:46 | 32.75784 | -117.18236 | 8047 ft | 251 kts | 114° |
| 2026-04-26 19:47 | 32.75165 | -117.16330 | 7902 ft | 245 kts | 107° |
| 2026-04-26 19:47 | 32.75040 | -117.15667 | 7876 ft | 242 kts | 98° |
| 2026-04-26 19:47 | 32.74738 | -117.12490 | 7746 ft | 225 kts | 94° |
| 2026-04-26 19:47 | 32.74740 | -117.10636 | 7503 ft | 223 kts | 85° |
| 2026-04-26 19:48 | 32.74894 | -117.08815 | 7278 ft | 221 kts | 82° |
| 2026-04-26 19:48 | 32.75081 | -117.07004 | 7041 ft | 219 kts | 81° |